sim
Sign-in with your pilot id or email,
or register
Callsign
Passwort

Schedule Details

Flight Number: DLH2289
Departure: Brussels Airport (EBBR) at 16:00
Arrival: Munich Airport (EDDM) at 17:15
Route: Lufthansa Passenger Schedule. Enter filed route here before submitting Pirep.

Weather Information
Getting current METAR information for EBBR 240120Z 24010KT CAVOK 13/10 Q1001 NOSIG
Getting current METAR information for EDDM 240120Z 24003KT CAVOK 11/11 Q1009 NOSIG

Schedule Frequency

Route Map